createdAt,value
2023-02-13T00:00:09.907Z,1039.11
2023-02-13T00:00:40.378Z,1039.21
2023-02-13T00:01:11.384Z,1039.21
2023-02-13T00:01:42.294Z,1039.38
2023-02-13T00:02:13.552Z,1039.11
2023-02-13T00:02:44.045Z,1039.11
2023-02-13T00:03:15.552Z,1039.11
2023-02-13T00:03:47.354Z,1039.11
2023-02-13T00:04:34.693Z,1039.01
2023-02-13T00:04:49.145Z,1039.01
2023-02-13T00:05:19.718Z,1039.21
2023-02-13T00:05:50.465Z,1039.21
2023-02-13T00:06:39.178Z,1039.11
2023-02-13T00:06:52.679Z,1039.11
2023-02-13T00:07:23.368Z,1039.11
2023-02-13T00:07:54.937Z,1039.11
2023-02-13T00:08:25.297Z,1038.91
2023-02-13T00:08:57.590Z,1038.91
2023-02-13T00:09:28.063Z,1039.21
2023-02-13T00:09:59.017Z,1039.21
2023-02-13T00:10:29.710Z,1039.11
2023-02-13T00:11:17.117Z,1039.21
2023-02-13T00:11:31.378Z,1039.21
2023-02-13T00:12:02.411Z,1039.21
2023-02-13T00:12:33.330Z,1039.01
2023-02-13T00:13:04.101Z,1039.01
2023-02-13T00:13:35.726Z,1039.01
2023-02-13T00:14:06.703Z,1039.01
2023-02-13T00:14:38.425Z,1039.11
2023-02-13T00:15:25.744Z,1039.11
2023-02-13T00:15:40.350Z,1039.11
2023-02-13T00:16:10.799Z,1039.11
2023-02-13T00:16:41.504Z,1039.21
2023-02-13T00:17:12.348Z,1039.01
2023-02-13T00:17:43.365Z,1039.01
2023-02-13T00:18:14.420Z,1038.91
2023-02-13T00:18:45.278Z,1038.91
2023-02-13T00:19:16.574Z,1038.91
2023-02-13T00:19:48.090Z,1038.91
2023-02-13T00:20:18.917Z,1039.21
2023-02-13T00:20:50.013Z,1039.21
2023-02-13T00:21:20.493Z,1039.01
2023-02-13T00:21:51.582Z,1039.01
2023-02-13T00:22:22.437Z,1039.01
2023-02-13T00:22:53.425Z,1039.01
2023-02-13T00:23:24.330Z,1039.11
2023-02-13T00:23:55.300Z,1039.11
2023-02-13T00:24:26.233Z,1039.11
2023-02-13T00:24:58.048Z,1039.11
2023-02-13T00:25:29.239Z,1038.91
2023-02-13T00:25:59.789Z,1038.91
2023-02-13T00:26:30.536Z,1039.11
2023-02-13T00:27:02.022Z,1039.11
2023-02-13T00:27:32.237Z,1038.91
2023-02-13T00:28:03.562Z,1038.91
2023-02-13T00:28:34.239Z,1039.21
2023-02-13T00:29:05.157Z,1039.21
2023-02-13T00:29:36.776Z,1039.01
2023-02-13T00:30:08.820Z,1039.01
2023-02-13T00:30:39.292Z,1039.01
2023-02-13T00:31:10.152Z,1039.01
2023-02-13T00:31:40.824Z,1039.11
2023-02-13T00:32:11.721Z,1039.01
2023-02-13T00:32:42.586Z,1039.01
2023-02-13T00:33:13.540Z,1039.11
2023-02-13T00:33:44.371Z,1039.11
2023-02-13T00:34:15.238Z,1039.21
2023-02-13T00:35:18.088Z,1039.32
2023-02-13T00:35:48.847Z,1039.32
2023-02-13T00:36:20.239Z,1039.01
2023-02-13T00:36:50.497Z,1039.01
2023-02-13T00:37:21.377Z,1039.01
2023-02-13T00:37:52.487Z,1039.01
2023-02-13T00:38:23.155Z,1039.32
2023-02-13T00:38:54.428Z,1039.32
2023-02-13T00:39:26.387Z,1039.01
2023-02-13T00:39:56.607Z,1039.01
2023-02-13T00:40:28.561Z,1039.01
2023-02-13T00:40:59.423Z,1039.01
2023-02-13T00:41:30.017Z,1039.01
2023-02-13T00:42:00.517Z,1039.01
2023-02-13T00:42:31.201Z,1039.01
2023-02-13T00:43:02.608Z,1039.01
2023-02-13T00:43:33.436Z,1039.01
2023-02-13T00:44:04.476Z,1039.01
2023-02-13T00:44:35.461Z,1039.11
2023-02-13T00:45:06.928Z,1039.11
2023-02-13T00:45:38.350Z,1039.21
2023-02-13T00:46:09.425Z,1039.21
2023-02-13T00:46:40.139Z,1039.01
2023-02-13T00:47:11.386Z,1039.01
2023-02-13T00:47:59.288Z,1039.01
2023-02-13T00:48:43.415Z,1039.21
2023-02-13T00:49:14.300Z,1039.11
2023-02-13T00:49:45.517Z,1039.11
2023-02-13T00:50:16.963Z,1039.01
2023-02-13T00:50:48.218Z,1039.01
2023-02-13T00:51:19.286Z,1039.11
2023-02-13T00:51:50.093Z,1039.11
2023-02-13T00:52:21.050Z,1039.21
2023-02-13T00:52:51.599Z,1039.21
2023-02-13T00:53:22.810Z,1039.11
2023-02-13T00:53:53.446Z,1039.11
2023-02-13T00:54:24.580Z,1039.11
2023-02-13T00:54:55.515Z,1039.11
2023-02-13T00:55:26.477Z,1039.11
2023-02-13T00:55:57.775Z,1039.11
2023-02-13T00:56:45.547Z,1038.81
2023-02-13T00:56:59.944Z,1038.81
2023-02-13T00:57:30.810Z,1039.21
2023-02-13T00:58:01.763Z,1039.21
2023-02-13T00:58:32.597Z,1039.32
2023-02-13T00:59:03.472Z,1039.32
2023-02-13T00:59:34.532Z,1038.91
2023-02-13T01:00:06.400Z,1038.91
2023-02-13T01:00:36.594Z,1039.32
2023-02-13T01:01:07.989Z,1039.32
2023-02-13T01:01:39.196Z,1039.21
2023-02-13T01:02:10.247Z,1039.21
2023-02-13T01:02:40.890Z,1039.11
2023-02-13T01:03:11.776Z,1039.11
2023-02-13T01:03:42.539Z,1039.11
2023-02-13T01:04:48.961Z,1039.11
2023-02-13T01:05:02.121Z,1039.11
2023-02-13T01:05:15.566Z,1039.11
2023-02-13T01:05:46.272Z,1039.11
2023-02-13T01:06:18.540Z,1039.11
2023-02-13T01:06:50.025Z,1039.11
2023-02-13T01:07:20.761Z,1039.21
2023-02-13T01:07:52.510Z,1039.21
2023-02-13T01:08:48.685Z,1038.91
2023-02-13T01:10:05.672Z,1038.91
2023-02-13T01:10:34.715Z,1039.11
2023-02-13T01:11:50.145Z,1039.11
2023-02-13T01:12:02.355Z,1039.01
2023-02-13T01:12:33.168Z,1039.01
2023-02-13T01:13:01.548Z,1039.01
2023-02-13T01:13:32.220Z,1039.11
2023-02-13T01:14:02.871Z,1039.11
2023-02-13T01:14:34.560Z,1039.11
2023-02-13T01:15:14.828Z,1039.11
2023-02-13T01:15:42.028Z,1039.11
2023-02-13T01:16:07.282Z,1039.11
2023-02-13T01:16:38.058Z,1039.21
2023-02-13T01:17:10.149Z,1039.21
2023-02-13T01:17:40.923Z,1039.38
2023-02-13T01:18:12.249Z,1039.38
2023-02-13T01:18:42.311Z,1039.11
2023-02-13T01:19:13.082Z,1039.32
2023-02-13T01:19:46.523Z,1039.32
2023-02-13T01:20:15.321Z,1038.91
2023-02-13T01:20:45.736Z,1038.91
2023-02-13T01:21:20.688Z,1039.21
2023-02-13T01:21:48.216Z,1039.21
2023-02-13T01:22:19.803Z,1039.21
2023-02-13T01:22:51.138Z,1039.21
2023-02-13T01:23:22.092Z,1039.21
2023-02-13T01:23:52.419Z,1039.21
2023-02-13T01:24:23.157Z,1039.11
2023-02-13T01:24:54.039Z,1039.11
2023-02-13T01:25:24.875Z,1039.11
2023-02-13T01:25:56.351Z,1039.11
2023-02-13T01:26:26.885Z,1039.21
2023-02-13T01:27:05.019Z,1039.21
2023-02-13T01:27:31.664Z,1039.21
2023-02-13T01:28:01.441Z,1039.21
2023-02-13T01:28:31.685Z,1039.32
2023-02-13T01:29:33.402Z,1039.21
2023-02-13T01:30:05.097Z,1039.21
2023-02-13T01:30:35.520Z,1039.11
2023-02-13T01:31:07.067Z,1039.11
2023-02-13T01:31:38.539Z,1039.21
2023-02-13T01:32:08.361Z,1039.21
2023-02-13T01:32:40.291Z,1039.01
2023-02-13T01:33:25.951Z,1039.01
2023-02-13T01:33:42.000Z,1039.21
2023-02-13T01:34:12.812Z,1039.11
2023-02-13T01:34:43.761Z,1039.11
2023-02-13T01:35:14.201Z,1039.21
2023-02-13T01:36:04.788Z,1039.21
2023-02-13T01:36:16.079Z,1039.21
2023-02-13T01:36:47.212Z,1039.21
2023-02-13T01:37:18.281Z,1039.11
2023-02-13T01:37:50.386Z,1039.11
2023-02-13T01:38:20.850Z,1039.11
2023-02-13T01:38:51.945Z,1039.11
2023-02-13T01:39:22.823Z,1039.32
2023-02-13T01:39:53.247Z,1039.32
2023-02-13T01:40:24.520Z,1039.11
2023-02-13T01:40:56.106Z,1039.11
2023-02-13T01:41:25.935Z,1039.11
2023-02-13T01:41:56.967Z,1039.11
2023-02-13T01:42:30.461Z,1039.21
2023-02-13T01:42:59.147Z,1039.21
2023-02-13T01:43:31.526Z,1039.11
2023-02-13T01:44:02.004Z,1039.11
2023-02-13T01:44:32.577Z,1039.32
2023-02-13T01:45:04.073Z,1039.32
2023-02-13T01:45:34.157Z,1039.11
2023-02-13T01:46:05.259Z,1039.11
2023-02-13T01:46:36.261Z,1039.11
2023-02-13T01:48:24.151Z,1039.11
2023-02-13T01:48:40.531Z,1039.01
2023-02-13T01:49:12.287Z,1039.01
2023-02-13T01:49:46.447Z,1039.21
2023-02-13T01:50:13.993Z,1038.91
2023-02-13T01:50:46.031Z,1038.91
2023-02-13T01:51:15.815Z,1039.32
2023-02-13T01:51:46.145Z,1039.32
2023-02-13T01:52:16.752Z,1039.01
2023-02-13T01:52:48.066Z,1039.01
2023-02-13T01:53:19.792Z,1039.01
2023-02-13T01:53:50.482Z,1039.01
2023-02-13T01:54:23.140Z,1038.91
2023-02-13T01:54:52.615Z,1038.91
2023-02-13T01:55:23.522Z,1039.11
2023-02-13T01:55:54.281Z,1039.11
2023-02-13T01:56:24.980Z,1038.91
2023-02-13T01:56:56.284Z,1038.91
2023-02-13T01:57:26.781Z,1039.11
2023-02-13T01:57:58.786Z,1039.11
2023-02-13T01:58:29.125Z,1039.11
2023-02-13T01:59:01.033Z,1039.11
2023-02-13T01:59:32.445Z,1039.21
2023-02-13T02:00:10.276Z,1039.21
2023-02-13T02:00:36.249Z,1039.11
2023-02-13T02:01:04.683Z,1039.11
2023-02-13T02:01:35.133Z,1039.01
2023-02-13T02:02:37.254Z,1039.11
2023-02-13T02:03:08.423Z,1039.11
2023-02-13T02:03:39.396Z,1039.11
2023-02-13T02:04:11.810Z,1039.11
2023-02-13T02:05:09.823Z,1039.11
2023-02-13T02:05:42.860Z,1039.01
2023-02-13T02:06:14.328Z,1039.11
2023-02-13T02:06:49.481Z,1039.11
2023-02-13T02:07:16.674Z,1039.21
2023-02-13T02:07:53.972Z,1039.21
2023-02-13T02:08:19.403Z,1039.32
2023-02-13T02:08:49.689Z,1039.32
2023-02-13T02:09:20.429Z,1039.11
2023-02-13T02:09:51.625Z,1039.11
2023-02-13T02:10:22.686Z,1039.11
2023-02-13T02:10:53.119Z,1039.11
2023-02-13T02:11:24.371Z,1039.11
2023-02-13T02:11:54.868Z,1039.11
2023-02-13T02:12:26.575Z,1039.01
2023-02-13T02:12:57.949Z,1039.01
2023-02-13T02:13:29.017Z,1039.38
2023-02-13T02:14:00.697Z,1039.38
2023-02-13T02:14:30.208Z,1039.21
2023-02-13T02:15:20.625Z,1039.11
2023-02-13T02:15:32.002Z,1039.11
2023-02-13T02:16:03.420Z,1039.11
2023-02-13T02:16:34.161Z,1039.21
2023-02-13T02:17:05.214Z,1039.21
2023-02-13T02:17:36.634Z,1039.11
2023-02-13T02:18:07.742Z,1039.11
2023-02-13T02:18:39.674Z,1039.11
2023-02-13T02:19:10.341Z,1039.11
2023-02-13T02:19:40.870Z,1039.01
2023-02-13T02:20:12.001Z,1039.01
2023-02-13T02:20:42.079Z,1039.21
2023-02-13T02:21:12.840Z,1039.01
2023-02-13T02:21:44.144Z,1039.01
2023-02-13T02:22:14.838Z,1039.11
2023-02-13T02:22:46.604Z,1039.11
2023-02-13T02:23:18.313Z,1039.21
2023-02-13T02:23:49.517Z,1039.21
2023-02-13T02:24:36.723Z,1039.11
2023-02-13T02:24:50.414Z,1039.11
2023-02-13T02:25:21.758Z,1038.91
2023-02-13T02:25:52.656Z,1038.91
2023-02-13T02:26:23.403Z,1039.11
2023-02-13T02:26:53.919Z,1039.11
2023-02-13T02:27:24.972Z,1039.01
2023-02-13T02:27:55.988Z,1039.01
2023-02-13T02:28:27.456Z,1038.91
2023-02-13T02:28:58.729Z,1038.91
2023-02-13T02:29:29.236Z,1039.01
2023-02-13T02:29:59.926Z,1039.01
2023-02-13T02:30:31.269Z,1038.91
2023-02-13T02:31:02.250Z,1038.91
2023-02-13T02:31:32.958Z,1039.01
2023-02-13T02:32:03.643Z,1039.01
2023-02-13T02:32:35.212Z,1039.01
2023-02-13T02:33:06.301Z,1039.01
2023-02-13T02:33:37.392Z,1039.11
2023-02-13T02:34:09.411Z,1039.11
2023-02-13T02:34:39.982Z,1038.81
2023-02-13T02:35:10.380Z,1038.81
2023-02-13T02:35:40.829Z,1039.21
2023-02-13T02:36:11.901Z,1039.01
2023-02-13T02:36:43.014Z,1039.01
2023-02-13T02:37:14.068Z,1038.91
2023-02-13T02:37:44.689Z,1038.91
2023-02-13T02:38:16.197Z,1039.11
2023-02-13T02:38:47.370Z,1039.11
2023-02-13T02:39:18.901Z,1038.91
2023-02-13T02:39:49.816Z,1038.91
2023-02-13T02:40:20.705Z,1039.11
2023-02-13T02:40:51.343Z,1039.11
2023-02-13T02:41:21.862Z,1038.91
2023-02-13T02:42:10.972Z,1038.91
2023-02-13T02:42:23.786Z,1039.11
2023-02-13T02:42:55.182Z,1039.11
2023-02-13T02:43:26.100Z,1038.81
2023-02-13T02:43:57.256Z,1038.81
2023-02-13T02:44:28.812Z,1039.11
2023-02-13T02:44:59.305Z,1039.11
2023-02-13T02:46:01.354Z,1038.91
2023-02-13T02:46:33.174Z,1038.91
2023-02-13T02:47:34.246Z,1038.81
2023-02-13T02:48:05.194Z,1038.81
2023-02-13T02:48:35.979Z,1038.81
2023-02-13T02:49:06.925Z,1038.81
2023-02-13T02:49:39.228Z,1038.81
2023-02-13T02:50:09.824Z,1038.81
2023-02-13T02:50:40.856Z,1038.91
2023-02-13T02:51:11.595Z,1038.91
2023-02-13T02:51:56.118Z,1038.81
2023-02-13T02:52:12.949Z,1039.01
2023-02-13T02:52:56.209Z,1039.01
2023-02-13T02:53:15.403Z,1038.71
2023-02-13T02:53:45.973Z,1038.71
2023-02-13T02:54:17.364Z,1038.91
2023-02-13T02:54:48.450Z,1038.91
2023-02-13T02:55:20.080Z,1038.60
2023-02-13T02:55:51.835Z,1038.60
2023-02-13T02:56:21.341Z,1038.81
2023-02-13T02:56:52.351Z,1038.81
2023-02-13T02:57:23.327Z,1038.71
2023-02-13T02:58:25.292Z,1038.60
2023-02-13T02:58:56.109Z,1038.60
2023-02-13T02:59:27.841Z,1038.71
2023-02-13T02:59:58.492Z,1038.71
2023-02-13T03:00:30.020Z,1038.60
2023-02-13T03:01:00.829Z,1038.60
2023-02-13T03:04:04.959Z,1038.50
2023-02-13T03:04:38.070Z,1038.60
2023-02-13T03:05:09.094Z,1038.60
2023-02-13T03:05:39.459Z,1038.71
2023-02-13T03:06:45.385Z,1038.81
2023-02-13T03:07:11.883Z,1038.71
2023-02-13T03:07:44.581Z,1038.71
2023-02-13T03:08:14.039Z,1038.71
2023-02-13T03:08:44.847Z,1038.71
2023-02-13T03:09:16.257Z,1038.81
2023-02-13T03:09:47.061Z,1038.81
2023-02-13T03:10:19.350Z,1038.71
2023-02-13T03:10:49.741Z,1038.71
2023-02-13T03:11:20.585Z,1038.81
2023-02-13T03:11:51.717Z,1038.81
2023-02-13T03:12:21.812Z,1038.71
2023-02-13T03:12:53.390Z,1038.71
2023-02-13T03:13:41.504Z,1038.91
2023-02-13T03:13:55.329Z,1038.91
2023-02-13T03:14:26.232Z,1038.71
2023-02-13T03:14:56.772Z,1038.71
2023-02-13T03:15:29.809Z,1038.81
2023-02-13T03:15:59.699Z,1038.81
2023-02-13T03:16:30.829Z,1038.71
2023-02-13T03:17:02.095Z,1038.71
2023-02-13T03:17:32.026Z,1038.71
2023-02-13T03:18:21.329Z,1038.81
2023-02-13T03:18:33.821Z,1038.81
2023-02-13T03:19:05.050Z,1038.81
2023-02-13T03:19:36.028Z,1038.71
2023-02-13T03:20:08.405Z,1038.71
2023-02-13T03:20:39.403Z,1038.91
2023-02-13T03:21:40.828Z,1039.01
2023-02-13T03:22:11.365Z,1039.01
2023-02-13T03:23:14.604Z,1038.91
2023-02-13T03:23:44.106Z,1038.91
2023-02-13T03:24:15.161Z,1038.71
2023-02-13T03:24:46.711Z,1038.71
2023-02-13T03:25:18.211Z,1038.91
2023-02-13T03:25:48.696Z,1038.91
2023-02-13T03:26:19.988Z,1038.71
2023-02-13T03:27:07.470Z,1038.71
2023-02-13T03:27:21.921Z,1038.81
2023-02-13T03:27:53.040Z,1038.81
2023-02-13T03:28:23.236Z,1038.81
2023-02-13T03:28:54.377Z,1038.81
2023-02-13T03:29:25.073Z,1038.91
2023-02-13T03:29:56.176Z,1038.91
2023-02-13T03:30:30.418Z,1038.91
2023-02-13T03:30:59.307Z,1038.91
2023-02-13T03:31:30.505Z,1038.81
2023-02-13T03:32:01.311Z,1038.81
2023-02-13T03:32:31.350Z,1038.71
2023-02-13T03:33:01.967Z,1038.71
2023-02-13T03:33:33.079Z,1038.91
2023-02-13T03:34:04.464Z,1038.91
2023-02-13T03:34:35.742Z,1038.91
2023-02-13T03:35:06.246Z,1038.91
2023-02-13T03:35:37.065Z,1039.01
2023-02-13T03:36:25.636Z,1038.81
2023-02-13T03:36:39.893Z,1038.81
2023-02-13T03:37:59.025Z,1038.81
2023-02-13T03:38:12.479Z,1039.01
2023-02-13T03:38:43.007Z,1039.01
2023-02-13T03:39:14.204Z,1038.91
2023-02-13T03:39:45.205Z,1038.91
2023-02-13T03:40:16.579Z,1038.81
2023-02-13T03:40:47.347Z,1038.81
2023-02-13T03:41:18.835Z,1039.01
2023-02-13T03:41:50.008Z,1039.01
2023-02-13T03:42:21.275Z,1038.91
2023-02-13T03:42:51.746Z,1038.91
2023-02-13T03:43:22.054Z,1038.71
2023-02-13T03:43:53.405Z,1038.71
2023-02-13T03:44:24.512Z,1038.91
2023-02-13T03:45:13.055Z,1038.71
2023-02-13T03:45:26.081Z,1038.71
2023-02-13T03:45:57.027Z,1038.71
2023-02-13T03:46:33.757Z,1038.91
2023-02-13T03:47:00.104Z,1038.91
2023-02-13T03:47:31.203Z,1038.81
2023-02-13T03:48:01.662Z,1038.81
2023-02-13T03:48:33.097Z,1038.91
2023-02-13T03:49:03.348Z,1038.91
2023-02-13T03:49:35.417Z,1038.91
2023-02-13T03:50:05.867Z,1038.91
2023-02-13T03:50:35.994Z,1038.91
2023-02-13T03:51:07.444Z,1038.91
2023-02-13T03:51:38.646Z,1038.91
2023-02-13T03:52:10.340Z,1038.91
2023-02-13T03:52:41.416Z,1038.71
2023-02-13T03:53:11.838Z,1038.71
2023-02-13T03:53:42.222Z,1038.81
2023-02-13T03:54:13.533Z,1038.91
2023-02-13T03:54:44.627Z,1038.91
2023-02-13T03:55:15.280Z,1038.91
2023-02-13T03:55:46.445Z,1038.91
2023-02-13T03:56:17.241Z,1038.91
2023-02-13T03:56:48.916Z,1038.91
2023-02-13T03:57:19.926Z,1038.91
2023-02-13T03:57:51.572Z,1038.91
2023-02-13T03:58:22.066Z,1038.71
2023-02-13T03:58:52.249Z,1038.71
2023-02-13T03:59:22.969Z,1039.01
2023-02-13T03:59:54.283Z,1039.01
2023-02-13T04:00:25.469Z,1038.91
2023-02-13T04:00:56.503Z,1038.91
2023-02-13T04:01:27.224Z,1038.91
2023-02-13T04:01:59.365Z,1038.91
2023-02-13T04:02:30.394Z,1038.91
2023-02-13T04:03:01.652Z,1038.91
2023-02-13T04:03:31.933Z,1038.71
2023-02-13T04:04:02.493Z,1038.71
2023-02-13T04:04:33.292Z,1038.81
2023-02-13T04:05:06.736Z,1038.81
2023-02-13T04:05:35.536Z,1038.81
2023-02-13T04:06:37.387Z,1038.81
2023-02-13T04:07:08.847Z,1038.81
2023-02-13T04:07:40.143Z,1038.91
2023-02-13T04:08:41.850Z,1038.71
2023-02-13T04:09:12.483Z,1038.91
2023-02-13T04:09:43.168Z,1038.91
2023-02-13T04:10:15.317Z,1038.81
2023-02-13T04:10:45.202Z,1038.81
2023-02-13T04:11:16.471Z,1038.81
2023-02-13T04:12:04.942Z,1038.81
2023-02-13T04:12:18.788Z,1038.71
2023-02-13T04:12:50.566Z,1038.71
2023-02-13T04:13:22.684Z,1038.91
2023-02-13T04:14:10.008Z,1038.91
2023-02-13T04:14:24.815Z,1038.91
2023-02-13T04:15:26.083Z,1038.71
2023-02-13T04:15:55.059Z,1038.71
2023-02-13T04:16:26.276Z,1038.91
2023-02-13T04:16:57.379Z,1038.91
2023-02-13T04:17:28.771Z,1038.81
2023-02-13T04:18:00.837Z,1038.81
2023-02-13T04:18:31.716Z,1038.81
2023-02-13T04:19:02.214Z,1038.81
2023-02-13T04:20:03.713Z,1038.71
2023-02-13T04:20:35.853Z,1038.91
2023-02-13T04:21:05.456Z,1038.91
2023-02-13T04:21:36.606Z,1038.71
2023-02-13T04:22:07.613Z,1038.71
2023-02-13T04:22:38.125Z,1038.81
2023-02-13T04:23:09.945Z,1038.81
2023-02-13T04:23:41.944Z,1038.60
2023-02-13T04:24:12.701Z,1038.60
2023-02-13T04:24:43.033Z,1038.71
2023-02-13T04:25:13.931Z,1038.81
2023-02-13T04:25:44.649Z,1038.81
2023-02-13T04:26:15.202Z,1038.91
2023-02-13T04:26:46.556Z,1038.91
2023-02-13T04:27:17.093Z,1038.81
2023-02-13T04:27:48.226Z,1038.81
2023-02-13T04:28:20.040Z,1039.01
2023-02-13T04:28:51.631Z,1039.01
2023-02-13T04:29:22.578Z,1038.81
2023-02-13T04:29:52.672Z,1038.81
2023-02-13T04:30:23.785Z,1038.91
2023-02-13T04:30:54.498Z,1038.91
2023-02-13T04:31:25.458Z,1038.91
2023-02-13T04:32:27.994Z,1038.71
2023-02-13T04:32:58.317Z,1038.71
2023-02-13T04:33:29.796Z,1038.91
2023-02-13T04:34:02.133Z,1038.91
2023-02-13T04:34:32.283Z,1038.71
2023-02-13T04:35:02.689Z,1038.71
2023-02-13T04:35:33.613Z,1038.91
2023-02-13T04:36:04.602Z,1038.91
2023-02-13T04:36:36.177Z,1038.91
2023-02-13T04:37:06.530Z,1038.91
2023-02-13T04:37:37.426Z,1038.81
2023-02-13T04:38:08.564Z,1038.81
2023-02-13T04:38:39.749Z,1038.71
2023-02-13T04:39:11.423Z,1038.71
2023-02-13T04:39:42.354Z,1038.71
2023-02-13T04:40:13.168Z,1038.71
2023-02-13T04:40:43.865Z,1038.71
2023-02-13T04:41:14.450Z,1038.60
2023-02-13T04:41:45.225Z,1038.60
2023-02-13T04:42:16.431Z,1038.81
2023-02-13T04:42:47.317Z,1038.81
2023-02-13T04:43:18.428Z,1038.60
2023-02-13T04:43:49.337Z,1038.60
2023-02-13T04:44:22.069Z,1038.60
2023-02-13T04:44:52.292Z,1038.60
2023-02-13T04:46:01.276Z,1038.71
2023-02-13T04:46:24.883Z,1038.71
2023-02-13T04:46:55.555Z,1038.71
2023-02-13T04:47:26.541Z,1038.60
2023-02-13T04:47:57.193Z,1038.60
2023-02-13T04:48:28.418Z,1038.60
2023-02-13T04:48:59.890Z,1038.60
2023-02-13T04:49:31.382Z,1038.81
2023-02-13T04:50:02.493Z,1038.81
2023-02-13T04:50:33.221Z,1038.60
2023-02-13T04:51:03.770Z,1038.60
2023-02-13T04:51:35.729Z,1038.60
2023-02-13T04:52:05.898Z,1038.60
2023-02-13T04:52:37.420Z,1038.60
2023-02-13T04:53:07.392Z,1038.60
2023-02-13T04:53:38.661Z,1038.50
2023-02-13T04:54:09.289Z,1038.50
2023-02-13T04:54:41.676Z,1038.60
2023-02-13T04:55:12.374Z,1038.60
2023-02-13T04:55:43.041Z,1038.50
2023-02-13T04:56:13.320Z,1038.40
2023-02-13T04:56:44.511Z,1038.40
2023-02-13T04:57:15.751Z,1038.71
2023-02-13T04:57:46.581Z,1038.71
2023-02-13T04:58:17.529Z,1038.50
2023-02-13T04:58:48.741Z,1038.50
2023-02-13T04:59:20.364Z,1038.60
2023-02-13T04:59:51.522Z,1038.60
2023-02-13T05:00:22.483Z,1038.60
2023-02-13T05:00:52.542Z,1038.60
2023-02-13T05:01:23.524Z,1038.50
2023-02-13T05:01:54.564Z,1038.50
2023-02-13T05:02:25.671Z,1038.40
2023-02-13T05:02:56.769Z,1038.40
2023-02-13T05:03:28.003Z,1038.50
2023-02-13T05:04:29.655Z,1038.81
2023-02-13T05:05:01.140Z,1038.81
2023-02-13T05:05:31.732Z,1038.71
2023-02-13T05:06:02.945Z,1038.71
2023-02-13T05:06:33.661Z,1038.81
2023-02-13T05:07:05.024Z,1038.81
2023-02-13T05:07:35.583Z,1038.50
2023-02-13T05:08:07.640Z,1038.50
2023-02-13T05:08:38.210Z,1038.71
2023-02-13T05:09:26.821Z,1038.71
2023-02-13T05:09:41.529Z,1038.71
2023-02-13T05:10:12.058Z,1038.71
2023-02-13T05:10:42.558Z,1038.71
2023-02-13T05:11:12.622Z,1038.50
2023-02-13T05:11:43.833Z,1038.50
2023-02-13T05:12:14.793Z,1038.71
2023-02-13T05:12:45.670Z,1038.71
2023-02-13T05:13:17.424Z,1038.81
2023-02-13T05:13:47.937Z,1038.81
2023-02-13T05:14:19.474Z,1038.50
2023-02-13T05:14:49.761Z,1038.50
2023-02-13T05:15:22.034Z,1038.71
2023-02-13T05:16:22.549Z,1038.71
2023-02-13T05:16:53.531Z,1038.71
2023-02-13T05:17:26.714Z,1038.50
2023-02-13T05:17:56.473Z,1038.50
2023-02-13T05:18:27.797Z,1038.71
2023-02-13T05:18:58.461Z,1038.71
2023-02-13T05:19:29.108Z,1038.71
2023-02-13T05:20:00.012Z,1038.71
2023-02-13T05:20:31.301Z,1038.71
2023-02-13T05:21:01.873Z,1038.71
2023-02-13T05:21:32.503Z,1038.60
2023-02-13T05:22:04.829Z,1038.60
2023-02-13T05:22:35.329Z,1038.71
2023-02-13T05:23:07.664Z,1038.71
2023-02-13T05:23:37.310Z,1038.71
2023-02-13T05:24:09.126Z,1038.71
2023-02-13T05:24:39.289Z,1038.60
2023-02-13T05:25:09.804Z,1038.60
2023-02-13T05:25:41.375Z,1038.81
2023-02-13T05:26:11.752Z,1038.60
2023-02-13T05:26:42.597Z,1038.60
2023-02-13T05:27:31.132Z,1038.71
2023-02-13T05:27:44.417Z,1038.71
2023-02-13T05:28:16.545Z,1038.81
2023-02-13T05:28:47.412Z,1038.81
2023-02-13T05:29:18.643Z,1038.71
2023-02-13T05:29:49.363Z,1038.71
2023-02-13T05:30:21.555Z,1038.71
2023-02-13T05:30:52.471Z,1038.71
2023-02-13T05:31:22.347Z,1038.81
2023-02-13T05:31:53.196Z,1038.81
2023-02-13T05:32:23.607Z,1038.71
2023-02-13T05:32:54.577Z,1038.71
2023-02-13T05:33:26.929Z,1038.71
2023-02-13T05:33:58.296Z,1038.71
2023-02-13T05:34:29.123Z,1038.60
2023-02-13T05:34:59.853Z,1038.60
2023-02-13T05:35:30.448Z,1038.71
2023-02-13T05:36:38.751Z,1038.71
2023-02-13T05:37:02.428Z,1038.71
2023-02-13T05:37:33.551Z,1038.71
2023-02-13T05:38:04.918Z,1038.71
2023-02-13T05:38:35.799Z,1038.71
2023-02-13T05:39:07.906Z,1038.71
2023-02-13T05:39:38.609Z,1038.60
2023-02-13T05:40:10.354Z,1038.60
2023-02-13T05:40:40.647Z,1038.50
2023-02-13T05:41:11.234Z,1038.50
2023-02-13T05:41:41.837Z,1038.81
2023-02-13T05:42:12.360Z,1038.71
2023-02-13T05:42:43.614Z,1038.71
2023-02-13T05:43:14.884Z,1038.60
2023-02-13T05:43:45.900Z,1038.60
2023-02-13T05:44:17.699Z,1038.50
2023-02-13T05:45:07.010Z,1038.50
2023-02-13T05:45:20.073Z,1038.60
2023-02-13T05:45:51.687Z,1038.60
2023-02-13T05:46:21.487Z,1038.60
2023-02-13T05:46:52.225Z,1038.60
2023-02-13T05:47:22.608Z,1038.60
2023-02-13T05:47:53.749Z,1038.60
2023-02-13T05:48:24.680Z,1038.50
2023-02-13T05:48:55.483Z,1038.50
2023-02-13T05:49:27.401Z,1038.71
2023-02-13T05:49:58.872Z,1038.71
2023-02-13T05:50:29.311Z,1038.60
2023-02-13T05:51:00.115Z,1038.60
2023-02-13T05:51:30.881Z,1038.71
2023-02-13T05:52:01.976Z,1038.71
2023-02-13T05:52:33.141Z,1038.91
2023-02-13T05:53:04.672Z,1038.91
2023-02-13T05:53:34.979Z,1038.71
2023-02-13T05:54:07.337Z,1038.71
2023-02-13T05:54:38.255Z,1038.60
2023-02-13T05:55:08.285Z,1038.60
2023-02-13T05:55:39.781Z,1038.71
2023-02-13T05:56:10.749Z,1038.71
2023-02-13T05:56:41.073Z,1038.71
2023-02-13T05:57:12.378Z,1038.91
2023-02-13T05:57:42.735Z,1038.91
2023-02-13T05:58:13.751Z,1038.60
2023-02-13T05:58:44.661Z,1038.60
2023-02-13T05:59:16.151Z,1038.71
2023-02-13T05:59:47.626Z,1038.71
2023-02-13T06:00:18.701Z,1038.60
2023-02-13T06:00:49.086Z,1038.60
2023-02-13T06:01:19.758Z,1038.71
2023-02-13T06:01:51.535Z,1038.71
2023-02-13T06:02:22.086Z,1038.71
2023-02-13T06:03:10.101Z,1038.71
2023-02-13T06:03:23.790Z,1038.81
2023-02-13T06:03:58.461Z,1038.81
2023-02-13T06:04:25.720Z,1038.60
2023-02-13T06:04:57.440Z,1038.60
2023-02-13T06:05:28.758Z,1038.81
2023-02-13T06:05:59.396Z,1038.81
2023-02-13T06:06:30.104Z,1038.91
2023-02-13T06:07:01.226Z,1038.91
2023-02-13T06:07:33.539Z,1038.71
2023-02-13T06:08:03.084Z,1038.71
2023-02-13T06:08:33.852Z,1038.71
2023-02-13T06:09:04.687Z,1038.71
2023-02-13T06:09:36.024Z,1038.60
2023-02-13T06:10:07.819Z,1038.60
2023-02-13T06:10:38.878Z,1038.71
2023-02-13T06:11:09.124Z,1038.71
2023-02-13T06:11:39.919Z,1038.91
2023-02-13T06:12:11.086Z,1038.91
2023-02-13T06:12:43.254Z,1038.60
2023-02-13T06:13:12.605Z,1039.01
2023-02-13T06:13:43.760Z,1039.01
2023-02-13T06:14:15.376Z,1038.71
2023-02-13T06:14:46.728Z,1038.71
2023-02-13T06:15:18.442Z,1038.71
2023-02-13T06:15:48.587Z,1038.71
2023-02-13T06:16:21.017Z,1038.91
2023-02-13T06:16:49.775Z,1038.91
2023-02-13T06:17:21.245Z,1038.81
2023-02-13T06:17:51.919Z,1038.81
2023-02-13T06:18:22.748Z,1038.81
2023-02-13T06:18:53.807Z,1038.81
2023-02-13T06:19:54.955Z,1038.81
2023-02-13T06:20:41.153Z,1038.91
2023-02-13T06:20:59.193Z,1038.91
2023-02-13T06:21:29.260Z,1038.71
2023-02-13T06:21:59.981Z,1038.71
2023-02-13T06:22:31.031Z,1038.71
2023-02-13T06:23:01.773Z,1038.71
2023-02-13T06:23:32.657Z,1038.71
2023-02-13T06:24:05.814Z,1038.71
2023-02-13T06:24:35.115Z,1038.60
2023-02-13T06:25:05.922Z,1038.60
2023-02-13T06:25:37.415Z,1038.71
2023-02-13T06:26:09.224Z,1038.71
2023-02-13T06:26:40.014Z,1038.71
2023-02-13T06:27:10.153Z,1038.71
2023-02-13T06:27:41.510Z,1038.71
2023-02-13T06:28:11.967Z,1038.81
2023-02-13T06:28:42.830Z,1038.81
2023-02-13T06:29:18.895Z,1038.91
2023-02-13T06:29:44.843Z,1038.91
2023-02-13T06:30:16.650Z,1038.71
2023-02-13T06:30:47.907Z,1038.71
2023-02-13T06:31:19.254Z,1038.91